Global Laguna — 3FWV4 — position and weather

sailwx.info

Track history (hours):
 
Tides and Currents Weather Stations Pressure Air Temp Water Temp Dewpoint Dewpoint Depression Visibility Wind Speed Wind Dir Waves Ship Positions

Global Laguna

Last reported at 2017-Nov-16 04:34 UTC. Time now 2017-Nov-18 01:21 UTC.
Position N 35°50' W 024°22'.

Length 197 m; draft 12.8 m.

Type: Cargo ship. MMSI: 373102000.

Date/timePositionNaut miles runAvg speedWind from/ knotsBaromVisibWave heightAir tempDewpointWater temp
2017-Nov-16 04:34N 35°50' W 024°22'111.6
2017-Nov-16 04:30N 35°50' W 024°23'611.8
2017-Nov-16 04:00N 35°50' W 024°31'611.7
2017-Nov-16 03:30N 35°50' W 024°38'611.8
2017-Nov-16 03:00N 35°50' W 024°45'612.0
2017-Nov-16 02:30N 35°50' W 024°53'712.1
2017-Nov-16 01:54N 35°50' W 025°01'612.1
2017-Nov-16 01:26N 35°50' W 025°08'512.1
2017-Nov-16 01:00N 35°51' W 025°15'612.1
2017-Nov-16 00:30N 35°51' W 025°22'612.1
2017-Nov-16 00:00N 35°50' W 025°30'611.9
2017-Nov-15 23:28N 35°50' W 025°38'611.9
2017-Nov-15 23:00N 35°50' W 025°45'611.8
2017-Nov-15 22:30N 35°50' W 025°52'  
Track history (hours):
 
Tides and Currents Weather Stations Pressure Air Temp Water Temp Dewpoint Dewpoint Depression Visibility Wind Speed Wind Dir Waves Ship Positions

Global Laguna

Last reported at 2017-Nov-16 04:34 UTC. Time now 2017-Nov-18 01:21 UTC.
Position N 35°50' W 024°22'.

Length 197 m; draft 12.8 m.

Type: Cargo ship. MMSI: 373102000.

Date/timePositionNaut miles runAvg speedWind from/ knotsBaromVisibWave heightAir tempDewpointWater temp
2017-Nov-16 04:34N 35°50' W 024°22'111.6
2017-Nov-16 04:30N 35°50' W 024°23'611.8
2017-Nov-16 04:00N 35°50' W 024°31'611.7
2017-Nov-16 03:30N 35°50' W 024°38'611.8
2017-Nov-16 03:00N 35°50' W 024°45'612.0
2017-Nov-16 02:30N 35°50' W 024°53'712.1
2017-Nov-16 01:54N 35°50' W 025°01'612.1
2017-Nov-16 01:26N 35°50' W 025°08'512.1
2017-Nov-16 01:00N 35°51' W 025°15'612.1
2017-Nov-16 00:30N 35°51' W 025°22'612.1
2017-Nov-16 00:00N 35°50' W 025°30'611.9
2017-Nov-15 23:28N 35°50' W 025°38'611.9
2017-Nov-15 23:00N 35°50' W 025°45'611.8
2017-Nov-15 22:30N 35°50' W 025°52'  

Dump ship's entire track history